Map

Track Data

SID SEASON NUMBER BASIN SUBBASIN NAME ISO_TIME NATURE LAT LON WMO_WIND WMO_PRES WMO_AGENCY TRACK_TYPE DIST2LAND LANDFALL IFLAG USA_AGENCY USA_ATCF_ID USA_LAT USA_LON USA_RECORD USA_STATUS USA_WIND USA_PRES USA_SSHS USA_R34_NE USA_R34_SE USA_R34_SW USA_R34_NW USA_R50_NE USA_R50_SE USA_R50_SW USA_R50_NW USA_R64_NE USA_R64_SE USA_R64_SW USA_R64_NW USA_POCI USA_ROCI USA_RMW USA_EYE TOKYO_LAT TOKYO_LON TOKYO_GRADE TOKYO_WIND TOKYO_PRES TOKYO_R50_DIR TOKYO_R50_LONG TOKYO_R50_SHORT TOKYO_R30_DIR TOKYO_R30_LONG TOKYO_R30_SHORT TOKYO_LAND CMA_LAT CMA_LON CMA_CAT CMA_WIND CMA_PRES HKO_LAT HKO_LON HKO_CAT HKO_WIND HKO_PRES NEWDELHI_LAT NEWDELHI_LON NEWDELHI_GRADE NEWDELHI_WIND NEWDELHI_PRES NEWDELHI_CI NEWDELHI_DP NEWDELHI_POCI REUNION_LAT REUNION_LON REUNION_TYPE REUNION_WIND REUNION_PRES REUNION_TNUM REUNION_CI REUNION_RMW REUNION_R34_NE REUNION_R34_SE REUNION_R34_SW REUNION_R34_NW REUNION_R50_NE REUNION_R50_SE REUNION_R50_SW REUNION_R50_NW REUNION_R64_NE REUNION_R64_SE REUNION_R64_SW REUNION_R64_NW BOM_LAT BOM_LON BOM_TYPE BOM_WIND BOM_PRES BOM_TNUM BOM_CI BOM_RMW BOM_R34_NE BOM_R34_SE BOM_R34_SW BOM_R34_NW BOM_R50_NE BOM_R50_SE BOM_R50_SW BOM_R50_NW BOM_R64_NE BOM_R64_SE BOM_R64_SW BOM_R64_NW BOM_ROCI BOM_POCI BOM_EYE BOM_POS_METHOD BOM_PRES_METHOD NADI_LAT NADI_LON NADI_CAT NADI_WIND NADI_PRES WELLINGTON_LAT WELLINGTON_LON WELLINGTON_WIND WELLINGTON_PRES DS824_LAT DS824_LON DS824_STAGE DS824_WIND DS824_PRES TD9636_LAT TD9636_LON TD9636_STAGE TD9636_WIND TD9636_PRES TD9635_LAT TD9635_LON TD9635_WIND TD9635_PRES TD9635_ROCI NEUMANN_LAT NEUMANN_LON NEUMANN_CLASS NEUMANN_WIND NEUMANN_PRES MLC_LAT MLC_LON MLC_CLASS MLC_WIND MLC_PRES USA_GUST BOM_GUST BOM_GUST_PER REUNION_GUST REUNION_GUST_PER USA_SEAHGT USA_SEARAD_NE USA_SEARAD_SE USA_SEARAD_SW USA_SEARAD_NW STORM_SPEED STORM_DIR
1860052S14057 1860 10 SI MM NOT_NAMED 1860-02-21 06:00:00 NR -13.9000 56.9000 reunion main 696 675 _____O________ -1 -13.9000 56.9000 99 9.90000 6 221
1860052S14057 1860 10 SI MM NOT_NAMED 1860-02-21 09:00:00 NR -14.1100 56.7105 main 676 653 _____P________ -1 -14.1100 56.7105 99 6 221
1860052S14057 1860 10 SI MM NOT_NAMED 1860-02-21 12:00:00 NR -14.3178 56.5234 main 653 628 _____P________ -1 -14.3178 56.5234 99 5 221
1860052S14057 1860 10 SI MM NOT_NAMED 1860-02-21 15:00:00 NR -14.5213 56.3412 main 628 627 _____P________ -1 -14.5213 56.3412 99 4 212
1860052S14057 1860 10 SI MM NOT_NAMED 1860-02-21 18:00:00 NR -14.6346 56.3134 main 627 608 _____P____O___ -1 -14.7183 56.1667 99 -14.3000 56.9000 7 3 206
1860052S14057 1860 10 SI MM NOT_NAMED 1860-02-21 21:00:00 NR -14.7947 56.2041 main 608 589 _____P____P___ -1 -14.9067 56.0026 99 -14.5707 56.6070 7 4 216
1860052S14057 1860 10 SI MM NOT_NAMED 1860-02-22 00:00:00 NR -14.9767 56.0570 main 589 573 _____P____P___ -1 -15.0845 55.8516 99 -14.8330 56.3308 7 5 218
1860052S14057 1860 10 SI MM NOT_NAMED 1860-02-22 03:00:00 NR -15.1642 55.9029 main 573 566 _____P____P___ -1 -15.2497 55.7165 99 -15.0787 56.0892 7 5 218
1860052S14057 1860 10 SI MM NOT_NAMED 1860-02-22 06:00:00 NR -15.3500 55.7500 reunion main 566 546 _____O____O___ -1 -15.4000 55.6000 99 9.90000 -15.3000 55.9000 7 4 216
1860052S14057 1860 10 SI MM NOT_NAMED 1860-02-22 09:00:00 NR -15.5125 55.6390 main 546 542 _____P____P___ -1 -15.5342 55.5037 99 -15.4908 55.7744 7 4 211
1860052S14057 1860 10 SI MM NOT_NAMED 1860-02-22 12:00:00 NR -15.6532 55.5610 main 531 525 _____P____P___ -1 -15.6540 55.4249 99 -15.6523 55.6971 7 3 207
1860052S14057 1860 10 SI MM NOT_NAMED 1860-02-22 15:00:00 NR -15.7747 55.5030 main 525 515 _____P____P___ -1 -15.7617 55.3597 99 -15.7877 55.6463 7 3 205
1860052S14057 1860 10 SI MM NOT_NAMED 1860-02-22 18:00:00 NR -15.8798 55.4521 main 515 509 _____P____O___ -1 -15.8596 55.3041 99 -15.9000 55.6000 7 2 210
1860052S14057 1860 10 SI MM NOT_NAMED 1860-02-22 21:00:00 NR -15.9712 55.3896 main 509 509 _____P____P___ -1 -15.9500 55.2543 99 -15.9925 55.5249 7 2 216
1860052S14057 1860 10 SI MM NOT_NAMED 1860-02-23 00:00:00 NR -16.0502 55.3281 main 504 504 _____P____P___ -1 -16.0353 55.2063 99 -16.0650 55.4499 7 2 218
1860052S14057 1860 10 SI MM NOT_NAMED 1860-02-23 03:00:00 NR -16.1239 55.2656 main 504 499 _____P____P___ -1 -16.1179 55.1562 99 -16.1300 55.3749 7 2 219
1860052S14057 1860 10 SI MM NOT_NAMED 1860-02-23 06:00:00 NR -16.2000 55.2000 reunion main 499 489 _____O____O___ -1 -16.2000 55.1000 99 9.90000 -16.2000 55.3000 7 2 219
1860052S14057 1860 10 SI MM NOT_NAMED 1860-02-23 09:00:00 NR -16.2915 55.1215 main 494 485 _____P____P___ -1 -16.2903 55.0180 99 -16.2928 55.2250 7 2 220
1860052S14057 1860 10 SI MM NOT_NAMED 1860-02-23 12:00:00 NR -16.3853 55.0406 main 490 481 _____P____P___ -1 -16.3782 54.9312 99 -16.3925 55.1500 7 2 220
1860052S14057 1860 10 SI MM NOT_NAMED 1860-02-23 15:00:00 NR -16.4802 54.9582 main 481 478 _____P____P___ -1 -16.4645 54.8414 99 -16.4959 55.0750 7 2 220
1860052S14057 1860 10 SI MM NOT_NAMED 1860-02-23 18:00:00 NR -16.5750 54.8750 main 478 475 _____P____O___ -1 -16.5501 54.7500 99 -16.6000 55.0000 7 2 220
1860052S14057 1860 10 SI MM NOT_NAMED 1860-02-23 21:00:00 NR -16.6658 54.7918 main 475 471 _____P____P___ -1 -16.6356 54.6586 99 -16.6959 54.9250 7 2 221
1860052S14057 1860 10 SI MM NOT_NAMED 1860-02-24 00:00:00 NR -16.7572 54.7093 main 472 465 _____P____P___ -1 -16.7219 54.5687 99 -16.7925 54.8500 7 2 220
1860052S14057 1860 10 SI MM NOT_NAMED 1860-02-24 03:00:00 NR -16.8513 54.6285 main 464 464 _____P____P___ -1 -16.8098 54.4820 99 -16.8928 54.7750 7 2 219
1860052S14057 1860 10 SI MM NOT_NAMED 1860-02-24 06:00:00 NR -16.9500 54.5500 reunion main 464 453 _____O____O___ -1 -16.9000 54.4000 99 9.90000 -17.0000 54.7000 7 2 215
1860052S14057 1860 10 SI MM NOT_NAMED 1860-02-24 09:00:00 NR -17.0538 54.4813 main 444 435 _____P____P___ -1 -16.9857 54.3375 99 -17.1219 54.6250 7 2 211
1860052S14057 1860 10 SI MM NOT_NAMED 1860-02-24 12:00:00 NR -17.1612 54.4152 main 435 424 _____P____P___ -1 -17.0723 54.2805 99 -17.2500 54.5500 7 3 210
1860052S14057 1860 10 SI MM NOT_NAMED 1860-02-24 15:00:00 NR -17.2698 54.3506 main 424 416 _____P____P___ -1 -17.1615 54.2261 99 -17.3781 54.4750 7 3 210
1860052S14057 1860 10 SI MM NOT_NAMED 1860-02-24 18:00:00 NR -17.3774 54.2859 main 416 408 _____P____O___ -1 -17.2547 54.1718 99 -17.5000 54.4000 7 2 210
1860052S14057 1860 10 SI MM NOT_NAMED 1860-02-24 21:00:00 NR -17.4763 54.2239 main 408 397 _____P____P___ -1 -17.3536 54.1147 99 -17.5990 54.3330 7 2 211
1860052S14057 1860 10 SI MM NOT_NAMED 1860-02-25 00:00:00 NR -17.5761 54.1585 main 397 390 _____P____P___ -1 -17.4598 54.0522 99 -17.6924 54.2648 7 2 212
1860052S14057 1860 10 SI MM NOT_NAMED 1860-02-25 03:00:00 NR -17.6822 54.0854 main 390 383 _____P____P___ -1 -17.5747 53.9816 99 -17.7896 54.1892 7 3 214
1860052S14057 1860 10 SI MM NOT_NAMED 1860-02-25 06:00:00 NR -17.8000 54.0000 reunion main 383 372 _____O____O___ -1 -17.7000 53.9000 99 9.90000 -17.9000 54.1000 7 3 215
1860052S14057 1860 10 SI MM NOT_NAMED 1860-02-25 09:00:00 NR -17.9365 53.8948 main 376 360 _____P____P___ -1 -17.8374 53.8002 99 -18.0356 53.9894 7 4 217
1860052S14057 1860 10 SI MM NOT_NAMED 1860-02-25 12:00:00 NR -18.0850 53.7775 main 360 355 _____P____P___ -1 -17.9851 53.6901 99 -18.1850 53.8650 7 4 217
1860052S14057 1860 10 SI MM NOT_NAMED 1860-02-25 15:00:00 NR -18.2417 53.6521 main 355 340 _____P____P___ -1 -18.1415 53.5712 99 -18.3419 53.7331 7 4 217
1860052S14057 1860 10 SI MM NOT_NAMED 1860-02-25 18:00:00 NR -18.4025 53.5225 main 346 334 _____P____O___ -1 -18.3051 53.4450 99 -18.5000 53.6000 7 4 218
1860052S14057 1860 10 SI MM NOT_NAMED 1860-02-25 21:00:00 NR -18.5601 53.3941 main 334 331 _____P____P___ -1 -18.4743 53.3133 99 -18.6459 53.4749 7 4 217
1860052S14057 1860 10 SI MM NOT_NAMED 1860-02-26 00:00:00 NR -18.7200 53.2637 main 331 321 _____P____P___ -1 -18.6475 53.1774 99 -18.7925 53.3499 7 4 218
1860052S14057 1860 10 SI MM NOT_NAMED 1860-02-26 03:00:00 NR -18.8830 53.1320 main 328 320 _____P____P___ -1 -18.8233 53.0392 99 -18.9428 53.2249 7 4 217
1860052S14057 1860 10 SI MM NOT_NAMED 1860-02-26 06:00:00 NR -19.0500 53.0000 reunion main 328 320 _____O____O___ -1 -19.0000 52.9000 99 9.90000 -19.1000 53.1000 7 4 216
1860052S14057 1860 10 SI MM NOT_NAMED 1860-02-26 09:00:00 NR -19.2190 52.8721 main 320 314 _____P____P___ -1 -19.1703 52.7651 99 -19.2678 52.9790 7 4 215
1860052S14057 1860 10 SI MM NOT_NAMED 1860-02-26 12:00:00 NR -19.3926 52.7427 main 322 316 _____P____P___ -1 -19.3428 52.6280 99 -19.4424 52.8574 7 4 215
1860052S14057 1860 10 SI MM NOT_NAMED 1860-02-26 15:00:00 NR -19.5689 52.6107 main 318 318 _____P____P___ -1 -19.5170 52.4893 99 -19.6209 52.7321 7 4 216
1860052S14057 1860 10 SI MM NOT_NAMED 1860-02-26 18:00:00 NR -19.7462 52.4749 main 321 316 _____P____O___ -1 -19.6925 52.3498 99 -19.8000 52.6000 7 4 216
1860052S14057 1860 10 SI MM NOT_NAMED 1860-02-26 21:00:00 NR -19.9231 52.3346 main 330 325 _____P____P___ -1 -19.8689 52.2103 99 -19.9773 52.4589 7 4 219
1860052S14057 1860 10 SI MM NOT_NAMED 1860-02-27 00:00:00 NR -20.0916 52.1739 main 331 331 _____P____P___ -1 -20.0459 52.0717 99 -20.1526 52.3103 7 5 222
1860052S14057 1860 10 SI MM NOT_NAMED 1860-02-27 03:00:00 NR -20.2576 52.0086 main 335 316 _____P____P___ -1 -20.2231 51.9346 99 -20.3267 52.1565 7 5 224
1860052S14057 1860 10 SI MM NOT_NAMED 1860-02-27 06:00:00 NR -20.4200 51.8400 reunion main 316 307 _____O____O___ -1 -20.4000 51.8000 99 9.90000 -20.5000 52.0000 7 5 225
1860052S14057 1860 10 SI MM NOT_NAMED 1860-02-27 09:00:00 NR -20.5764 51.6684 main 309 292 _____P________ -1 -20.5764 51.6684 99 7 4 221
1860052S14057 1860 10 SI MM NOT_NAMED 1860-02-27 12:00:00 NR -20.7523 51.5395 main 295 288 _____P________ -1 -20.7523 51.5395 99 7 4 214
1860052S14057 1860 10 SI MM NOT_NAMED 1860-02-27 15:00:00 NR -20.9277 51.4129 main 288 283 _____P________ -1 -20.9277 51.4129 99 7 4 214
1860052S14057 1860 10 SI MM NOT_NAMED 1860-02-27 18:00:00 NR -21.1027 51.2883 main 287 283 _____P________ -1 -21.1027 51.2883 99 4 213
1860052S14057 1860 10 SI MM NOT_NAMED 1860-02-27 21:00:00 NR -21.2774 51.1651 main 287 273 _____P________ -1 -21.2774 51.1651 99 4 213
1860052S14057 1860 10 SI MM NOT_NAMED 1860-02-28 00:00:00 NR -21.4518 51.0430 main 275 267 _____P________ -1 -21.4518 51.0430 99 4 213
1860052S14057 1860 10 SI MM NOT_NAMED 1860-02-28 03:00:00 NR -21.6260 50.9214 main 267 260 _____P________ -1 -21.6260 50.9214 99 4 213
1860052S14057 1860 10 SI MM NOT_NAMED 1860-02-28 06:00:00 NR -21.8000 50.8000 reunion main 262 _____O________ -1 -21.8000 50.8000 99 9.90000 4 212

About IBTrACS Database

This database is a web-friendly format of International Best Track Archive for Climate Stewardship (IBTrACS), a global best track data archive curated by NOAA dating back to 1842.

Updated: 2021-10-21